Terminal Aerodrome Forecast
Issued by NWS Wilmington, NC

Home | Current Version | Previous Version | Text Only | Print | Product List | Glossary On
Versions: 1 2 3 4 5 6 7 8 9 10 11 12 13 14 15 16 17 18 19
000
FTUS42 KILM 200500 CCB
TAFLBT
TAF COR
KLBT 200559Z 2006/2106 03014G25KT 5SM -RA BR SCT008 OVC035
      TEMPO 2008/2011 SCT008 OVC020
     FM201500 03015G25KT P6SM VCSH SCT007 BKN010 OVC025
     FM201800 03017G22KT P6SM BKN015 OVC025
     FM202100 02015KT P6SM BKN025 OVC050=

USA.gov is the U.S. government's official web portal to all federal, state and local government web resources and services.